sensor_id;sensor_type;location;lat;lon;timestamp;P1;durP1;ratioP1;P2;durP2;ratioP2
54368;SDS011;40266;52.434;17.056;2023-03-01T00:10:37;164.80;;;77.00;;
54368;SDS011;40266;52.434;17.056;2023-03-01T00:30:49;151.30;;;70.60;;
54368;SDS011;40266;52.434;17.056;2023-03-01T01:23:56;141.00;;;63.50;;
54368;SDS011;40266;52.434;17.056;2023-03-01T02:09:07;123.50;;;58.70;;
54368;SDS011;40266;52.434;17.056;2023-03-01T02:16:37;125.80;;;57.70;;
54368;SDS011;40266;52.434;17.056;2023-03-01T03:07:43;124.00;;;54.00;;
54368;SDS011;40266;52.434;17.056;2023-03-01T03:19:11;126.80;;;55.40;;
54368;SDS011;40266;52.434;17.056;2023-03-01T03:55:14;140.50;;;58.60;;
54368;SDS011;40266;52.434;17.056;2023-03-01T04:02:40;130.60;;;57.30;;
54368;SDS011;40266;52.434;17.056;2023-03-01T04:25:16;142.10;;;58.50;;
54368;SDS011;40266;52.434;17.056;2023-03-01T04:51:56;131.40;;;57.60;;
54368;SDS011;40266;52.434;17.056;2023-03-01T05:19:19;125.90;;;55.80;;
54368;SDS011;40266;52.434;17.056;2023-03-01T05:30:24;130.90;;;58.30;;
54368;SDS011;40266;52.434;17.056;2023-03-01T05:33:39;139.40;;;59.80;;
54368;SDS011;40266;52.434;17.056;2023-03-01T05:41:28;127.00;;;55.90;;
54368;SDS011;40266;52.434;17.056;2023-03-01T05:44:33;137.50;;;60.40;;
54368;SDS011;40266;52.434;17.056;2023-03-01T05:47:44;143.20;;;59.60;;
54368;SDS011;40266;52.434;17.056;2023-03-01T05:54:12;141.40;;;60.50;;
54368;SDS011;40266;52.434;17.056;2023-03-01T05:57:07;131.30;;;58.90;;
54368;SDS011;40266;52.434;17.056;2023-03-01T06:00:17;127.20;;;56.50;;
54368;SDS011;40266;52.434;17.056;2023-03-01T06:03:14;128.10;;;56.40;;
54368;SDS011;40266;52.434;17.056;2023-03-01T06:06:02;130.90;;;58.50;;
54368;SDS011;40266;52.434;17.056;2023-03-01T06:09:25;127.80;;;56.40;;
54368;SDS011;40266;52.434;17.056;2023-03-01T06:16:41;133.50;;;60.30;;
54368;SDS011;40266;52.434;17.056;2023-03-01T06:19:46;125.60;;;54.30;;
54368;SDS011;40266;52.434;17.056;2023-03-01T06:26:31;118.00;;;51.40;;
54368;SDS011;40266;52.434;17.056;2023-03-01T06:29:55;123.30;;;57.50;;
54368;SDS011;40266;52.434;17.056;2023-03-01T06:40:39;123.90;;;56.40;;
54368;SDS011;40266;52.434;17.056;2023-03-01T06:43:35;126.00;;;54.70;;
54368;SDS011;40266;52.434;17.056;2023-03-01T06:47:02;136.90;;;60.80;;
54368;SDS011;40266;52.434;17.056;2023-03-01T07:01:47;144.40;;;66.60;;
54368;SDS011;40266;52.434;17.056;2023-03-01T07:05:20;150.00;;;65.60;;
54368;SDS011;40266;52.434;17.056;2023-03-01T07:15:47;146.60;;;70.90;;
54368;SDS011;40266;52.434;17.056;2023-03-01T07:18:44;144.60;;;68.60;;
54368;SDS011;40266;52.434;17.056;2023-03-01T07:22:05;147.30;;;69.40;;
54368;SDS011;40266;52.434;17.056;2023-03-01T07:25:28;140.80;;;68.30;;
54368;SDS011;40266;52.434;17.056;2023-03-01T07:31:42;135.80;;;69.50;;
54368;SDS011;40266;52.434;17.056;2023-03-01T07:34:24;130.10;;;64.90;;
54368;SDS011;40266;52.434;17.056;2023-03-01T07:37:08;117.90;;;64.60;;
54368;SDS011;40266;52.434;17.056;2023-03-01T07:40:05;109.80;;;64.60;;
54368;SDS011;40266;52.434;17.056;2023-03-01T07:42:49;106.10;;;61.20;;
54368;SDS011;40266;52.434;17.056;2023-03-01T07:45:32;100.20;;;60.30;;
54368;SDS011;40266;52.434;17.056;2023-03-01T07:48:16;105.00;;;63.40;;
54368;SDS011;40266;52.434;17.056;2023-03-01T07:50:59;98.80;;;63.20;;
54368;SDS011;40266;52.434;17.056;2023-03-01T07:53:45;93.50;;;59.30;;
54368;SDS011;40266;52.434;17.056;2023-03-01T07:56:30;99.00;;;62.30;;
54368;SDS011;40266;52.434;17.056;2023-03-01T07:59:13;97.80;;;62.30;;
54368;SDS011;40266;52.434;17.056;2023-03-01T08:01:56;95.00;;;59.40;;
54368;SDS011;40266;52.434;17.056;2023-03-01T08:04:40;80.80;;;51.00;;
54368;SDS011;40266;52.434;17.056;2023-03-01T08:07:24;64.50;;;42.50;;
54368;SDS011;40266;52.434;17.056;2023-03-01T08:10:08;51.70;;;35.60;;
54368;SDS011;40266;52.434;17.056;2023-03-01T08:12:52;55.40;;;38.20;;
54368;SDS011;40266;52.434;17.056;2023-03-01T08:15:35;56.20;;;38.60;;
54368;SDS011;40266;52.434;17.056;2023-03-01T08:18:19;58.30;;;39.10;;
54368;SDS011;40266;52.434;17.056;2023-03-01T08:21:08;49.20;;;31.40;;
54368;SDS011;40266;52.434;17.056;2023-03-01T08:23:53;42.10;;;28.90;;
54368;SDS011;40266;52.434;17.056;2023-03-01T08:26:36;40.30;;;26.00;;
54368;SDS011;40266;52.434;17.056;2023-03-01T08:29:19;40.70;;;27.30;;
54368;SDS011;40266;52.434;17.056;2023-03-01T08:32:03;52.30;;;31.60;;
54368;SDS011;40266;52.434;17.056;2023-03-01T08:34:47;43.70;;;27.60;;
54368;SDS011;40266;52.434;17.056;2023-03-01T08:37:30;39.50;;;24.20;;
54368;SDS011;40266;52.434;17.056;2023-03-01T08:40:15;42.80;;;23.10;;
54368;SDS011;40266;52.434;17.056;2023-03-01T08:42:58;35.40;;;20.70;;
54368;SDS011;40266;52.434;17.056;2023-03-01T08:45:42;37.30;;;20.80;;
54368;SDS011;40266;52.434;17.056;2023-03-01T08:48:36;29.00;;;14.80;;
54368;SDS011;40266;52.434;17.056;2023-03-01T08:51:20;26.90;;;12.40;;
54368;SDS011;40266;52.434;17.056;2023-03-01T08:54:24;30.80;;;14.20;;
54368;SDS011;40266;52.434;17.056;2023-03-01T08:57:17;26.80;;;13.40;;
54368;SDS011;40266;52.434;17.056;2023-03-01T09:00:00;30.70;;;14.40;;
54368;SDS011;40266;52.434;17.056;2023-03-01T09:02:43;31.40;;;14.50;;
54368;SDS011;40266;52.434;17.056;2023-03-01T09:05:34;30.20;;;14.70;;
54368;SDS011;40266;52.434;17.056;2023-03-01T09:12:03;31.00;;;13.70;;
54368;SDS011;40266;52.434;17.056;2023-03-01T09:15:08;28.20;;;12.60;;
54368;SDS011;40266;52.434;17.056;2023-03-01T09:24:48;26.10;;;11.20;;
54368;SDS011;40266;52.434;17.056;2023-03-01T09:37:33;25.30;;;10.30;;
54368;SDS011;40266;52.434;17.056;2023-03-01T09:40:21;24.10;;;10.30;;
54368;SDS011;40266;52.434;17.056;2023-03-01T09:43:13;27.90;;;11.90;;
54368;SDS011;40266;52.434;17.056;2023-03-01T09:49:38;26.50;;;10.60;;
54368;SDS011;40266;52.434;17.056;2023-03-01T09:59:30;26.20;;;10.80;;
54368;SDS011;40266;52.434;17.056;2023-03-01T10:02:51;21.80;;;9.60;;
54368;SDS011;40266;52.434;17.056;2023-03-01T10:09:24;21.20;;;9.50;;
54368;SDS011;40266;52.434;17.056;2023-03-01T10:12:55;20.10;;;8.80;;
54368;SDS011;40266;52.434;17.056;2023-03-01T10:16:09;19.00;;;7.90;;
54368;SDS011;40266;52.434;17.056;2023-03-01T10:19:29;16.20;;;7.50;;
54368;SDS011;40266;52.434;17.056;2023-03-01T10:22:54;18.50;;;7.00;;
54368;SDS011;40266;52.434;17.056;2023-03-01T10:34:57;17.40;;;6.20;;
54368;SDS011;40266;52.434;17.056;2023-03-01T10:41:10;16.40;;;6.20;;
54368;SDS011;40266;52.434;17.056;2023-03-01T10:44:02;16.90;;;6.90;;
54368;SDS011;40266;52.434;17.056;2023-03-01T10:47:04;17.40;;;7.70;;
54368;SDS011;40266;52.434;17.056;2023-03-01T10:50:28;22.70;;;7.70;;
54368;SDS011;40266;52.434;17.056;2023-03-01T10:53:22;15.80;;;6.40;;
54368;SDS011;40266;52.434;17.056;2023-03-01T10:56:23;12.80;;;5.50;;
54368;SDS011;40266;52.434;17.056;2023-03-01T10:59:29;14.10;;;5.90;;
54368;SDS011;40266;52.434;17.056;2023-03-01T11:02:42;19.40;;;6.90;;
54368;SDS011;40266;52.434;17.056;2023-03-01T11:05:25;19.80;;;7.60;;
54368;SDS011;40266;52.434;17.056;2023-03-01T11:11:52;19.00;;;6.00;;
54368;SDS011;40266;52.434;17.056;2023-03-01T11:14:54;12.70;;;5.90;;
54368;SDS011;40266;52.434;17.056;2023-03-01T11:21:03;14.60;;;5.70;;
54368;SDS011;40266;52.434;17.056;2023-03-01T11:24:19;14.80;;;5.30;;
54368;SDS011;40266;52.434;17.056;2023-03-01T11:27:25;15.50;;;5.60;;
54368;SDS011;40266;52.434;17.056;2023-03-01T11:41:11;12.40;;;5.90;;
54368;SDS011;40266;52.434;17.056;2023-03-01T12:28:31;16.40;;;6.00;;
54368;SDS011;40266;52.434;17.056;2023-03-01T12:31:47;15.20;;;5.50;;
54368;SDS011;40266;52.434;17.056;2023-03-01T12:35:13;11.80;;;5.60;;
54368;SDS011;40266;52.434;17.056;2023-03-01T12:48:15;14.30;;;5.50;;
54368;SDS011;40266;52.434;17.056;2023-03-01T12:51:42;11.40;;;5.00;;
54368;SDS011;40266;52.434;17.056;2023-03-01T12:54:53;11.70;;;5.70;;
54368;SDS011;40266;52.434;17.056;2023-03-01T12:57:38;16.30;;;5.70;;
54368;SDS011;40266;52.434;17.056;2023-03-01T13:06:47;11.20;;;5.60;;
54368;SDS011;40266;52.434;17.056;2023-03-01T13:13:31;14.20;;;5.50;;
54368;SDS011;40266;52.434;17.056;2023-03-01T13:22:39;10.90;;;5.00;;
54368;SDS011;40266;52.434;17.056;2023-03-01T13:26:00;14.10;;;6.50;;
54368;SDS011;40266;52.434;17.056;2023-03-01T13:29:36;15.40;;;5.40;;
54368;SDS011;40266;52.434;17.056;2023-03-01T13:32:24;10.90;;;5.40;;
54368;SDS011;40266;52.434;17.056;2023-03-01T13:38:47;16.40;;;6.90;;
54368;SDS011;40266;52.434;17.056;2023-03-01T13:44:43;15.80;;;7.20;;
54368;SDS011;40266;52.434;17.056;2023-03-01T13:47:26;13.10;;;6.80;;
54368;SDS011;40266;52.434;17.056;2023-03-01T13:50:33;14.30;;;5.80;;
54368;SDS011;40266;52.434;17.056;2023-03-01T13:53:44;16.20;;;5.60;;
54368;SDS011;40266;52.434;17.056;2023-03-01T13:56:49;14.50;;;6.70;;
54368;SDS011;40266;52.434;17.056;2023-03-01T13:59:35;14.60;;;6.50;;
54368;SDS011;40266;52.434;17.056;2023-03-01T14:02:35;15.30;;;6.60;;
54368;SDS011;40266;52.434;17.056;2023-03-01T14:05:19;15.10;;;6.50;;
54368;SDS011;40266;52.434;17.056;2023-03-01T14:08:05;14.10;;;6.00;;
54368;SDS011;40266;52.434;17.056;2023-03-01T14:14:51;16.30;;;6.30;;
54368;SDS011;40266;52.434;17.056;2023-03-01T14:17:57;15.10;;;7.00;;
54368;SDS011;40266;52.434;17.056;2023-03-01T14:20:46;14.60;;;6.80;;
54368;SDS011;40266;52.434;17.056;2023-03-01T14:23:50;15.50;;;7.60;;
54368;SDS011;40266;52.434;17.056;2023-03-01T14:26:54;14.80;;;5.90;;
54368;SDS011;40266;52.434;17.056;2023-03-01T14:29:38;15.50;;;6.20;;
54368;SDS011;40266;52.434;17.056;2023-03-01T14:32:29;12.70;;;6.80;;
54368;SDS011;40266;52.434;17.056;2023-03-01T14:35:27;12.20;;;5.70;;
54368;SDS011;40266;52.434;17.056;2023-03-01T14:38:21;13.20;;;5.80;;
54368;SDS011;40266;52.434;17.056;2023-03-01T14:41:10;16.20;;;6.10;;
54368;SDS011;40266;52.434;17.056;2023-03-01T14:44:12;14.40;;;7.30;;
54368;SDS011;40266;52.434;17.056;2023-03-01T14:47:02;15.50;;;6.00;;
54368;SDS011;40266;52.434;17.056;2023-03-01T14:53:47;18.90;;;8.10;;
54368;SDS011;40266;52.434;17.056;2023-03-01T14:56:45;14.10;;;6.60;;
54368;SDS011;40266;52.434;17.056;2023-03-01T14:59:33;13.30;;;6.70;;
54368;SDS011;40266;52.434;17.056;2023-03-01T15:02:30;14.10;;;6.50;;
54368;SDS011;40266;52.434;17.056;2023-03-01T15:05:27;13.20;;;6.20;;
54368;SDS011;40266;52.434;17.056;2023-03-01T15:14:46;12.40;;;6.40;;
54368;SDS011;40266;52.434;17.056;2023-03-01T15:17:48;12.70;;;5.70;;
54368;SDS011;40266;52.434;17.056;2023-03-01T15:20:38;14.10;;;5.70;;
54368;SDS011;40266;52.434;17.056;2023-03-01T15:23:28;15.90;;;6.50;;
54368;SDS011;40266;52.434;17.056;2023-03-01T15:26:35;22.30;;;9.80;;
54368;SDS011;40266;52.434;17.056;2023-03-01T15:29:26;24.00;;;10.20;;
54368;SDS011;40266;52.434;17.056;2023-03-01T15:32:45;17.00;;;7.60;;
54368;SDS011;40266;52.434;17.056;2023-03-01T15:35:40;18.80;;;8.40;;
54368;SDS011;40266;52.434;17.056;2023-03-01T15:39:22;14.20;;;6.70;;
54368;SDS011;40266;52.434;17.056;2023-03-01T15:45:41;17.20;;;7.80;;
54368;SDS011;40266;52.434;17.056;2023-03-01T15:48:43;19.20;;;8.70;;
54368;SDS011;40266;52.434;17.056;2023-03-01T15:51:58;16.10;;;7.10;;
54368;SDS011;40266;52.434;17.056;2023-03-01T15:54:45;18.70;;;7.00;;
54368;SDS011;40266;52.434;17.056;2023-03-01T16:01:22;14.40;;;6.30;;
54368;SDS011;40266;52.434;17.056;2023-03-01T16:04:31;14.40;;;6.30;;
54368;SDS011;40266;52.434;17.056;2023-03-01T16:11:13;15.10;;;6.80;;
54368;SDS011;40266;52.434;17.056;2023-03-01T16:17:59;17.30;;;6.30;;
54368;SDS011;40266;52.434;17.056;2023-03-01T16:24:17;17.10;;;6.80;;
54368;SDS011;40266;52.434;17.056;2023-03-01T16:27:00;14.60;;;6.20;;
54368;SDS011;40266;52.434;17.056;2023-03-01T16:30:02;16.00;;;6.30;;
54368;SDS011;40266;52.434;17.056;2023-03-01T16:33:14;18.40;;;7.30;;
54368;SDS011;40266;52.434;17.056;2023-03-01T16:43:49;17.00;;;7.30;;
54368;SDS011;40266;52.434;17.056;2023-03-01T16:46:39;19.10;;;7.70;;
54368;SDS011;40266;52.434;17.056;2023-03-01T16:49:43;16.50;;;6.70;;
54368;SDS011;40266;52.434;17.056;2023-03-01T16:52:26;17.10;;;7.00;;
54368;SDS011;40266;52.434;17.056;2023-03-01T16:55:31;19.70;;;6.90;;
54368;SDS011;40266;52.434;17.056;2023-03-01T16:58:38;19.80;;;7.40;;
54368;SDS011;40266;52.434;17.056;2023-03-01T17:02:14;19.40;;;6.80;;
54368;SDS011;40266;52.434;17.056;2023-03-01T17:05:10;15.30;;;7.00;;
54368;SDS011;40266;52.434;17.056;2023-03-01T17:08:54;18.00;;;7.10;;
54368;SDS011;40266;52.434;17.056;2023-03-01T17:12:04;18.20;;;6.70;;
54368;SDS011;40266;52.434;17.056;2023-03-01T17:14:49;17.60;;;7.70;;
54368;SDS011;40266;52.434;17.056;2023-03-01T17:17:33;17.00;;;6.80;;
54368;SDS011;40266;52.434;17.056;2023-03-01T17:27:00;18.50;;;6.70;;
54368;SDS011;40266;52.434;17.056;2023-03-01T17:30:09;22.10;;;7.50;;
54368;SDS011;40266;52.434;17.056;2023-03-01T17:32:55;16.90;;;7.40;;
54368;SDS011;40266;52.434;17.056;2023-03-01T17:38:45;15.80;;;6.30;;
54368;SDS011;40266;52.434;17.056;2023-03-01T17:41:53;19.40;;;7.10;;
54368;SDS011;40266;52.434;17.056;2023-03-01T17:45:12;15.60;;;6.80;;
54368;SDS011;40266;52.434;17.056;2023-03-01T17:52:11;19.70;;;7.20;;
54368;SDS011;40266;52.434;17.056;2023-03-01T17:58:38;18.20;;;7.80;;
54368;SDS011;40266;52.434;17.056;2023-03-01T18:01:41;22.60;;;9.40;;
54368;SDS011;40266;52.434;17.056;2023-03-01T18:05:09;20.90;;;9.50;;
54368;SDS011;40266;52.434;17.056;2023-03-01T18:08:24;21.50;;;9.80;;
54368;SDS011;40266;52.434;17.056;2023-03-01T18:11:20;24.40;;;8.50;;
54368;SDS011;40266;52.434;17.056;2023-03-01T18:18:06;24.00;;;9.80;;
54368;SDS011;40266;52.434;17.056;2023-03-01T18:21:34;24.70;;;10.90;;
54368;SDS011;40266;52.434;17.056;2023-03-01T18:32:00;28.20;;;10.70;;
54368;SDS011;40266;52.434;17.056;2023-03-01T18:34:43;24.50;;;10.30;;
54368;SDS011;40266;52.434;17.056;2023-03-01T18:38:00;23.00;;;11.00;;
54368;SDS011;40266;52.434;17.056;2023-03-01T18:40:43;28.00;;;12.30;;
54368;SDS011;40266;52.434;17.056;2023-03-01T18:43:29;30.20;;;15.00;;
54368;SDS011;40266;52.434;17.056;2023-03-01T18:46:16;35.40;;;16.20;;
54368;SDS011;40266;52.434;17.056;2023-03-01T18:49:07;40.40;;;17.80;;
54368;SDS011;40266;52.434;17.056;2023-03-01T18:52:17;42.30;;;17.50;;
54368;SDS011;40266;52.434;17.056;2023-03-01T18:55:03;43.00;;;19.00;;
54368;SDS011;40266;52.434;17.056;2023-03-01T18:58:16;41.70;;;17.00;;
54368;SDS011;40266;52.434;17.056;2023-03-01T19:01:10;34.10;;;16.60;;
54368;SDS011;40266;52.434;17.056;2023-03-01T19:04:17;37.20;;;17.50;;
54368;SDS011;40266;52.434;17.056;2023-03-01T19:07:27;50.00;;;22.20;;
54368;SDS011;40266;52.434;17.056;2023-03-01T19:10:13;53.60;;;26.50;;
54368;SDS011;40266;52.434;17.056;2023-03-01T19:13:27;42.50;;;20.10;;
54368;SDS011;40266;52.434;17.056;2023-03-01T19:16:34;55.40;;;26.70;;
54368;SDS011;40266;52.434;17.056;2023-03-01T19:19:22;63.30;;;28.90;;
54368;SDS011;40266;52.434;17.056;2023-03-01T19:22:27;73.90;;;34.60;;
54368;SDS011;40266;52.434;17.056;2023-03-01T19:28:44;75.10;;;34.60;;
54368;SDS011;40266;52.434;17.056;2023-03-01T19:31:44;70.70;;;35.60;;
54368;SDS011;40266;52.434;17.056;2023-03-01T19:34:54;61.60;;;27.90;;
54368;SDS011;40266;52.434;17.056;2023-03-01T19:37:37;74.40;;;33.00;;
54368;SDS011;40266;52.434;17.056;2023-03-01T19:40:34;82.00;;;33.50;;
54368;SDS011;40266;52.434;17.056;2023-03-01T19:43:41;68.70;;;32.70;;
54368;SDS011;40266;52.434;17.056;2023-03-01T19:47:19;76.00;;;35.10;;
54368;SDS011;40266;52.434;17.056;2023-03-01T19:50:28;86.90;;;38.90;;
54368;SDS011;40266;52.434;17.056;2023-03-01T19:53:22;94.90;;;37.50;;
54368;SDS011;40266;52.434;17.056;2023-03-01T19:56:12;89.50;;;40.90;;
54368;SDS011;40266;52.434;17.056;2023-03-01T19:59:00;105.50;;;48.40;;
54368;SDS011;40266;52.434;17.056;2023-03-01T20:02:23;106.70;;;48.50;;
54368;SDS011;40266;52.434;17.056;2023-03-01T20:05:26;118.40;;;54.40;;
54368;SDS011;40266;52.434;17.056;2023-03-01T20:08:09;116.10;;;50.90;;
54368;SDS011;40266;52.434;17.056;2023-03-01T20:11:21;114.70;;;49.50;;
54368;SDS011;40266;52.434;17.056;2023-03-01T20:14:28;118.10;;;53.50;;
54368;SDS011;40266;52.434;17.056;2023-03-01T20:17:46;117.80;;;50.20;;
54368;SDS011;40266;52.434;17.056;2023-03-01T20:24:51;126.00;;;51.90;;
54368;SDS011;40266;52.434;17.056;2023-03-01T20:28:18;108.50;;;53.00;;
54368;SDS011;40266;52.434;17.056;2023-03-01T20:31:43;111.70;;;52.30;;
54368;SDS011;40266;52.434;17.056;2023-03-01T20:45:24;126.50;;;54.30;;
54368;SDS011;40266;52.434;17.056;2023-03-01T20:49:28;118.00;;;51.50;;
54368;SDS011;40266;52.434;17.056;2023-03-01T20:52:20;117.20;;;51.30;;
54368;SDS011;40266;52.434;17.056;2023-03-01T20:58:37;103.00;;;46.90;;
54368;SDS011;40266;52.434;17.056;2023-03-01T21:02:01;104.10;;;47.00;;
54368;SDS011;40266;52.434;17.056;2023-03-01T21:08:29;92.00;;;40.40;;
54368;SDS011;40266;52.434;17.056;2023-03-01T21:11:36;88.20;;;38.60;;
54368;SDS011;40266;52.434;17.056;2023-03-01T21:14:25;91.80;;;38.70;;
54368;SDS011;40266;52.434;17.056;2023-03-01T21:17:33;82.10;;;37.90;;
54368;SDS011;40266;52.434;17.056;2023-03-01T21:20:18;74.40;;;34.20;;
54368;SDS011;40266;52.434;17.056;2023-03-01T21:29:36;71.80;;;34.20;;
54368;SDS011;40266;52.434;17.056;2023-03-01T21:33:14;70.90;;;32.60;;
54368;SDS011;40266;52.434;17.056;2023-03-01T21:50:03;87.40;;;38.30;;
54368;SDS011;40266;52.434;17.056;2023-03-01T21:56:25;83.00;;;37.10;;
54368;SDS011;40266;52.434;17.056;2023-03-01T21:59:42;79.20;;;37.40;;
54368;SDS011;40266;52.434;17.056;2023-03-01T22:06:08;90.00;;;41.30;;
54368;SDS011;40266;52.434;17.056;2023-03-01T22:20:45;88.00;;;39.20;;
54368;SDS011;40266;52.434;17.056;2023-03-01T22:23:36;93.20;;;41.90;;
54368;SDS011;40266;52.434;17.056;2023-03-01T22:27:03;92.30;;;40.00;;
54368;SDS011;40266;52.434;17.056;2023-03-01T22:33:35;93.70;;;41.50;;
54368;SDS011;40266;52.434;17.056;2023-03-01T22:40:53;95.30;;;40.70;;
54368;SDS011;40266;52.434;17.056;2023-03-01T22:48:11;92.50;;;40.30;;
54368;SDS011;40266;52.434;17.056;2023-03-01T22:52:16;93.70;;;42.20;;
54368;SDS011;40266;52.434;17.056;2023-03-01T22:59:28;98.40;;;43.90;;
54368;SDS011;40266;52.434;17.056;2023-03-01T23:06:29;106.40;;;46.60;;
54368;SDS011;40266;52.434;17.056;2023-03-01T23:14:22;113.30;;;53.20;;
54368;SDS011;40266;52.434;17.056;2023-03-01T23:24:49;110.30;;;51.80;;
54368;SDS011;40266;52.434;17.056;2023-03-01T23:28:31;116.30;;;54.10;;
54368;SDS011;40266;52.434;17.056;2023-03-01T23:35:10;119.20;;;51.70;;
54368;SDS011;40266;52.434;17.056;2023-03-01T23:38:55;108.50;;;49.90;;
54368;SDS011;40266;52.434;17.056;2023-03-01T23:42:30;97.10;;;46.80;;
54368;SDS011;40266;52.434;17.056;2023-03-01T23:46:35;102.30;;;49.80;;
54368;SDS011;40266;52.434;17.056;2023-03-01T23:50:11;109.60;;;48.40;;
54368;SDS011;40266;52.434;17.056;2023-03-01T23:57:57;108.60;;;51.50;;
